Aviation Digital Data Service (ADDS)

Output produced by METARs form (0429 UTC 23 November 2014)
found at http://aviationweather.gov/adds/metars/
 
KRDU 230243Z 2303/2324 VRB03KT P6SM FEW120 SCT250 
     TEMPO 2309/2313 SCT020 
     FM231300 14003KT P6SM SCT070 BKN120 
     FM231800 10005KT 6SM -RA BKN025 OVC070 
     FM232100 11007KT 3SM -RA BR OVC007